Portoroz Secovlje, Slovenia

8:05 AM CEST on October 23, 2014 (GMT +0200)
Portoroz | Change Station
CLOSE
Current Station
Airport
Location: Portoroz,
Elevation: 10 ft
Nearby Weather Stations

Elev 10 ft 45.48 °N, 13.62 °E | Updated 5 minutes ago

Mostly Cloudy
Mostly Cloudy
50 °F
Feels Like 50 °F
N
7
Wind Variable Wind from ESE

Today
High -- | Low -- °F
--% Chance of Precip.
Yesterday
High -- | Low -- °F
Precip. -- in
7:32 AM 6:06 PM
Waning Crescent, 0% visible
Pressure 29.74 in
Visibility 6.2 miles
Clouds Scattered Clouds 7000 ft
Mostly Cloudy 9000 ft
Dew Point 41 °F
Humidity 71%
Rainfall 0.00 in
Snow Depth Not available.
UV 0 out of 12
Pollen Not available.
Air Quality Not available.
Flu Activity Not available.
METAR LJPZ 230600Z 11006KT 9999 SCT070 BKN090 10/05 Q1007

More Conditions Fewer Conditions

Pressure 29.74 in
Visibility 6.2 miles
Clouds Scattered Clouds 7000 ft
Mostly Cloudy 9000 ft
Dew Point 41 °F
Humidity 71%
Rainfall 0.00 in
Snow Depth Not available.
UV 0 out of 12
Pollen Not available.
Air Quality Not available.
Flu Activity Not available.
METAR LJPZ 230600Z 11006KT 9999 SCT070 BKN090 10/05 Q1007

More Conditions Fewer Conditions

10-Day Weather Forecast

Almanac

Astronomy

Oct. 23, 2014 Rise Set
Actual Time 7:32 AM CEST 6:06 PM CEST
Civil Twilight 7:01 AM CEST 6:37 PM CEST
Nautical Twilight 6:27 AM CEST 7:11 PM CEST
Astronomical Twilight 5:53 AM CEST 7:45 PM CEST
Moon 6:53 AM CEST 5:58 PM CEST
Length of Visible Light 11h 35m
Length of Day
10h 34m
Tomorrow will be 3m 0s shorter.
Waning Crescent, 0% of the Moon is Illuminated
Today
Waning Crescent
Oct 23
New
Oct 30
First Quarter
Nov 6
Full
Nov 14
Last Quarter

Yesterday's Extremes

Country Highs Country Lows

Community

WunderPhotos

Upload Photos

1,764,194 photos uploaded!

Nearby

Snow Depth

Not available.

Earthquake Activity

City Distance Mag. Time & Date
No recent earthquake activity has been reported nearby.
Minimum magnitude displayed is 2.5.

Coastal Water Temperatures

Place Temperature
No Stations Reporting

Nearby Weather Stations